createdAt,value
2023-01-09T00:02:04.421Z,0.30
2023-01-09T00:04:31.228Z,0.40
2023-01-09T00:06:58.043Z,0.50
2023-01-09T00:09:25.049Z,0.30
2023-01-09T00:11:52.522Z,0.40
2023-01-09T00:14:19.592Z,0.38
2023-01-09T00:16:46.872Z,0.30
2023-01-09T00:19:13.605Z,0.50
2023-01-09T00:21:40.763Z,0.47
2023-01-09T00:24:08.482Z,0.30
2023-01-09T00:26:35.783Z,0.40
2023-01-09T00:29:03.572Z,0.37
2023-01-09T00:31:30.185Z,0.30
2023-01-09T00:34:06.511Z,0.32
2023-01-09T00:36:33.483Z,0.20
2023-01-09T00:39:00.235Z,0.47
2023-01-09T00:41:46.190Z,0.52
2023-01-09T00:44:20.390Z,0.43
2023-01-09T00:46:51.609Z,0.30
2023-01-09T00:49:18.834Z,0.43
2023-01-09T00:51:45.803Z,0.20
2023-01-09T00:54:15.577Z,0.40
2023-01-09T00:56:42.474Z,0.38
2023-01-09T00:59:09.715Z,0.50
2023-01-09T01:01:36.589Z,0.55
2023-01-09T01:04:25.982Z,0.40
2023-01-09T01:07:11.125Z,0.35
2023-01-09T01:09:38.048Z,0.22
2023-01-09T01:12:07.178Z,0.30
2023-01-09T01:14:38.560Z,0.30
2023-01-09T01:17:06.849Z,0.40
2023-01-09T01:19:35.089Z,0.40
2023-01-09T01:22:02.186Z,0.25
2023-01-09T01:24:28.920Z,0.30
2023-01-09T01:26:55.583Z,0.40
2023-01-09T01:29:22.408Z,0.30
2023-01-09T01:31:49.101Z,0.55
2023-01-09T01:34:15.760Z,0.38
2023-01-09T01:36:42.382Z,0.20
2023-01-09T01:39:09.025Z,0.40
2023-01-09T01:41:36.854Z,0.20
2023-01-09T01:44:27.785Z,0.30
2023-01-09T01:46:56.662Z,0.30
2023-01-09T01:49:23.477Z,0.43
2023-01-09T01:51:54.172Z,0.38
2023-01-09T01:54:26.076Z,0.22
2023-01-09T01:56:57.261Z,0.30
2023-01-09T01:59:29.150Z,0.40
2023-01-09T02:01:59.783Z,0.32
2023-01-09T02:04:27.577Z,0.30
2023-01-09T02:06:56.385Z,0.25
2023-01-09T02:09:25.302Z,0.40
2023-01-09T02:11:56.467Z,0.30
2023-01-09T02:14:27.815Z,0.30
2023-01-09T02:17:30.189Z,0.30
2023-01-09T02:20:02.872Z,0.30
2023-01-09T02:22:53.843Z,0.30
2023-01-09T02:25:20.435Z,0.20
2023-01-09T02:27:55.976Z,0.28
2023-01-09T02:30:34.049Z,0.35
2023-01-09T02:33:53.103Z,0.30
2023-01-09T02:36:29.994Z,0.38
2023-01-09T02:39:14.537Z,0.30
2023-01-09T02:42:12.083Z,0.30
2023-01-09T02:44:38.812Z,0.40
2023-01-09T02:47:08.100Z,0.55
2023-01-09T02:49:38.434Z,0.30
2023-01-09T02:52:14.497Z,0.38
2023-01-09T02:54:43.981Z,0.40
2023-01-09T02:57:34.763Z,0.40
2023-01-09T03:00:30.856Z,0.30
2023-01-09T03:03:09.416Z,0.30
2023-01-09T03:05:39.738Z,0.40
2023-01-09T03:08:16.913Z,0.40
2023-01-09T03:10:54.585Z,0.30
2023-01-09T03:13:24.175Z,0.20
2023-01-09T03:15:54.071Z,0.30
2023-01-09T03:18:24.736Z,0.30
2023-01-09T03:20:52.159Z,0.30
2023-01-09T03:23:18.836Z,0.30
2023-01-09T03:25:45.570Z,0.22
2023-01-09T03:28:25.919Z,0.40
2023-01-09T03:30:52.510Z,0.35
2023-01-09T03:33:19.615Z,0.17
2023-01-09T03:35:46.279Z,0.40
2023-01-09T03:38:13.009Z,0.30
2023-01-09T03:40:40.282Z,0.22
2023-01-09T03:43:07.024Z,0.32
2023-01-09T03:45:33.911Z,0.20
2023-01-09T03:48:00.765Z,0.28
2023-01-09T03:50:27.560Z,0.40
2023-01-09T03:52:54.358Z,0.30
2023-01-09T03:55:21.220Z,0.70
2023-01-09T03:57:48.069Z,0.30
2023-01-09T04:00:15.039Z,0.25
2023-01-09T04:02:41.905Z,0.40
2023-01-09T04:05:09.118Z,0.30
2023-01-09T04:07:35.873Z,0.32
2023-01-09T04:10:03.344Z,0.30
2023-01-09T04:12:30.007Z,0.38
2023-01-09T04:14:56.661Z,0.52
2023-01-09T04:17:23.356Z,0.47
2023-01-09T04:19:51.805Z,0.40
2023-01-09T04:22:18.642Z,0.43
2023-01-09T04:24:45.454Z,0.55
2023-01-09T04:27:13.035Z,0.20
2023-01-09T04:29:39.851Z,0.90
2023-01-09T04:32:07.281Z,0.40
2023-01-09T04:34:34.137Z,0.30
2023-01-09T04:37:19.622Z,0.40
2023-01-09T04:39:46.214Z,0.65
2023-01-09T04:42:13.180Z,0.57
2023-01-09T04:44:40.047Z,0.35
2023-01-09T04:47:06.957Z,0.50
2023-01-09T04:49:33.908Z,0.40
2023-01-09T04:52:00.740Z,0.50
2023-01-09T04:54:27.878Z,0.77
2023-01-09T04:56:54.818Z,0.52
2023-01-09T04:59:21.503Z,1.10
2023-01-09T05:01:48.370Z,0.80
2023-01-09T05:04:15.312Z,1.00
2023-01-09T05:06:41.969Z,0.90
2023-01-09T05:09:08.712Z,0.90
2023-01-09T05:11:35.410Z,0.80
2023-01-09T05:14:02.027Z,0.80
2023-01-09T05:16:28.871Z,0.80
2023-01-09T05:18:57.160Z,0.95
2023-01-09T05:21:24.611Z,1.05
2023-01-09T05:23:51.442Z,0.88
2023-01-09T05:26:23.999Z,1.00
2023-01-09T05:28:56.198Z,0.70
2023-01-09T05:31:24.497Z,0.80
2023-01-09T05:33:51.205Z,0.88
2023-01-09T05:36:17.919Z,0.65
2023-01-09T05:38:44.811Z,0.80
2023-01-09T05:41:11.832Z,1.20
2023-01-09T05:43:38.733Z,0.80
2023-01-09T05:46:05.682Z,0.75
2023-01-09T05:48:32.626Z,0.80
2023-01-09T05:50:59.395Z,0.70
2023-01-09T05:53:26.240Z,0.60
2023-01-09T05:55:53.077Z,0.70
2023-01-09T05:58:20.031Z,0.90
2023-01-09T06:00:46.699Z,0.70
2023-01-09T06:03:13.410Z,0.90
2023-01-09T06:05:40.058Z,0.95
2023-01-09T06:08:06.748Z,0.60
2023-01-09T06:10:33.358Z,1.33
2023-01-09T06:13:00.103Z,0.60
2023-01-09T06:15:26.903Z,0.60
2023-01-09T06:17:53.870Z,0.63
2023-01-09T06:20:20.705Z,0.63
2023-01-09T06:22:47.354Z,0.60
2023-01-09T06:25:14.133Z,0.80
2023-01-09T06:27:40.779Z,0.70
2023-01-09T06:30:08.110Z,0.60
2023-01-09T06:32:34.865Z,0.63
2023-01-09T06:35:01.568Z,0.77
2023-01-09T06:37:28.288Z,0.60
2023-01-09T06:39:54.951Z,0.90
2023-01-09T06:42:22.120Z,0.63
2023-01-09T06:44:49.170Z,1.00
2023-01-09T06:47:16.079Z,0.70
2023-01-09T06:49:42.973Z,0.82
2023-01-09T06:52:09.781Z,0.60
2023-01-09T06:54:36.654Z,0.70
2023-01-09T06:57:03.660Z,0.70
2023-01-09T06:59:30.392Z,0.85
2023-01-09T07:01:57.549Z,0.90
2023-01-09T07:04:24.489Z,1.10
2023-01-09T07:06:51.137Z,0.77
2023-01-09T07:09:17.926Z,0.88
2023-01-09T07:11:45.117Z,0.70
2023-01-09T07:14:11.872Z,0.80
2023-01-09T07:16:38.740Z,0.90
2023-01-09T07:19:06.144Z,0.88
2023-01-09T07:21:33.137Z,0.90
2023-01-09T07:24:00.162Z,0.80
2023-01-09T07:26:26.925Z,0.82
2023-01-09T07:28:54.623Z,0.77
2023-01-09T07:31:21.422Z,0.80
2023-01-09T07:33:48.137Z,0.80
2023-01-09T07:36:15.021Z,0.57
2023-01-09T07:38:41.666Z,0.80
2023-01-09T07:41:08.334Z,0.70
2023-01-09T07:43:35.965Z,0.73
2023-01-09T07:46:02.576Z,0.90
2023-01-09T07:48:29.215Z,0.80
2023-01-09T07:50:55.855Z,0.70
2023-01-09T07:53:22.884Z,0.70
2023-01-09T07:55:49.669Z,0.73
2023-01-09T07:58:16.522Z,0.77
2023-01-09T08:00:43.372Z,0.60
2023-01-09T08:03:10.028Z,0.77
2023-01-09T08:05:36.766Z,0.85
2023-01-09T08:08:03.612Z,0.65
2023-01-09T08:10:30.368Z,0.57
2023-01-09T08:12:57.014Z,0.70
2023-01-09T08:15:23.617Z,0.60
2023-01-09T08:17:50.306Z,0.98
2023-01-09T08:20:17.687Z,0.95
2023-01-09T08:22:50.478Z,0.63
2023-01-09T08:25:18.218Z,0.73
2023-01-09T08:27:45.715Z,0.70
2023-01-09T08:30:12.833Z,0.90
2023-01-09T08:32:39.764Z,0.70
2023-01-09T08:35:07.097Z,0.65
2023-01-09T08:37:33.829Z,0.80
2023-01-09T08:40:00.518Z,0.70
2023-01-09T08:42:45.939Z,1.00
2023-01-09T08:45:31.313Z,0.60
2023-01-09T08:47:58.341Z,0.68
2023-01-09T08:50:25.222Z,0.80
2023-01-09T08:52:52.074Z,0.70
2023-01-09T08:55:18.997Z,0.75
2023-01-09T08:57:50.466Z,1.10
2023-01-09T09:00:22.374Z,0.70
2023-01-09T09:02:57.312Z,0.55
2023-01-09T09:05:26.039Z,0.88
2023-01-09T09:07:56.237Z,0.90
2023-01-09T09:10:24.727Z,0.75
2023-01-09T09:12:54.378Z,0.73
2023-01-09T09:15:25.101Z,0.80
2023-01-09T09:17:55.999Z,0.60
2023-01-09T09:20:24.712Z,0.90
2023-01-09T09:22:51.933Z,0.60
2023-01-09T09:25:19.638Z,0.90
2023-01-09T09:27:47.054Z,0.70
2023-01-09T09:30:15.915Z,0.80
2023-01-09T09:32:43.145Z,0.90
2023-01-09T09:35:10.201Z,0.75
2023-01-09T09:37:37.676Z,0.70
2023-01-09T09:40:17.971Z,1.00
2023-01-09T09:43:54.641Z,0.80
2023-01-09T09:46:40.812Z,0.80
2023-01-09T09:49:19.222Z,0.90
2023-01-09T09:52:25.413Z,0.90
2023-01-09T09:54:52.682Z,1.00
2023-01-09T09:57:26.138Z,0.85
2023-01-09T09:59:54.037Z,0.70
2023-01-09T10:02:31.062Z,0.77
2023-01-09T10:05:07.921Z,0.60
2023-01-09T10:07:42.763Z,0.80
2023-01-09T10:10:30.166Z,0.70
2023-01-09T10:12:59.805Z,0.65
2023-01-09T10:15:40.205Z,0.80
2023-01-09T10:18:30.860Z,0.75
2023-01-09T10:21:22.482Z,0.60
2023-01-09T10:24:10.518Z,0.70
2023-01-09T10:26:48.400Z,1.20
2023-01-09T10:29:23.758Z,0.70
2023-01-09T10:32:21.243Z,0.70
2023-01-09T10:35:06.216Z,0.75
2023-01-09T10:37:46.676Z,0.70
2023-01-09T10:40:30.184Z,0.70
2023-01-09T10:43:05.011Z,0.80
2023-01-09T10:45:40.291Z,0.80
2023-01-09T10:48:20.869Z,0.70
2023-01-09T10:50:51.849Z,0.70
2023-01-09T10:53:23.640Z,0.80
2023-01-09T10:55:55.774Z,0.68
2023-01-09T10:58:23.329Z,0.75
2023-01-09T11:00:51.164Z,0.70
2023-01-09T11:03:23.377Z,0.63
2023-01-09T11:05:58.290Z,0.80
2023-01-09T11:08:40.264Z,0.70
2023-01-09T11:11:07.064Z,0.73
2023-01-09T11:13:36.516Z,0.55
2023-01-09T11:16:04.939Z,0.80
2023-01-09T11:18:33.116Z,0.80
2023-01-09T11:21:29.555Z,0.70
2023-01-09T11:23:57.499Z,0.70
2023-01-09T11:26:26.965Z,0.57
2023-01-09T11:29:14.632Z,0.70
2023-01-09T11:31:43.273Z,0.60
2023-01-09T11:34:21.958Z,0.60
2023-01-09T11:36:49.515Z,0.60
2023-01-09T11:39:26.283Z,0.50
2023-01-09T11:41:55.592Z,0.73
2023-01-09T11:46:49.413Z,0.60
2023-01-09T11:49:19.829Z,0.70
2023-01-09T11:51:46.859Z,0.55
2023-01-09T11:54:25.356Z,0.60
2023-01-09T11:56:52.338Z,0.50
2023-01-09T11:59:26.669Z,0.68
2023-01-09T12:02:32.018Z,0.50
2023-01-09T12:05:37.903Z,0.50
2023-01-09T12:08:10.568Z,0.60
2023-01-09T12:11:15.018Z,0.70
2023-01-09T12:13:58.559Z,0.65
2023-01-09T12:16:31.007Z,0.55
2023-01-09T12:19:15.724Z,0.60
2023-01-09T12:22:07.401Z,0.70
2023-01-09T12:24:39.883Z,0.70
2023-01-09T12:27:18.438Z,0.60
2023-01-09T12:30:22.501Z,0.60
2023-01-09T12:33:03.642Z,0.60
2023-01-09T12:35:33.087Z,0.60
2023-01-09T12:38:53.574Z,0.70
2023-01-09T12:41:37.443Z,0.70
2023-01-09T12:44:36.072Z,0.80
2023-01-09T12:47:32.060Z,0.70
2023-01-09T12:50:10.932Z,0.50
2023-01-09T12:53:00.510Z,0.63
2023-01-09T12:55:32.671Z,0.75
2023-01-09T12:58:06.722Z,0.50
2023-01-09T13:00:41.018Z,0.60
2023-01-09T13:09:06.783Z,0.80
2023-01-09T13:11:47.086Z,0.60
2023-01-09T13:14:22.914Z,0.60
2023-01-09T13:16:53.327Z,0.47
2023-01-09T13:19:35.318Z,0.77
2023-01-09T13:22:05.523Z,0.60
2023-01-09T13:33:23.814Z,0.68
2023-01-09T13:35:56.250Z,0.63
2023-01-09T13:41:35.308Z,0.55
2023-01-09T13:44:20.179Z,0.60
2023-01-09T13:46:52.417Z,0.70
2023-01-09T13:49:34.793Z,0.85
2023-01-09T13:52:26.010Z,0.60
2023-01-09T13:54:55.791Z,0.70
2023-01-09T13:57:29.971Z,0.70
2023-01-09T14:00:19.315Z,0.60
2023-01-09T14:02:46.772Z,0.70
2023-01-09T14:05:15.778Z,0.77
2023-01-09T14:07:49.277Z,0.70
2023-01-09T14:10:27.411Z,0.75
2023-01-09T14:12:56.867Z,0.65
2023-01-09T14:15:37.791Z,0.75
2023-01-09T14:18:08.005Z,0.60
2023-01-09T14:20:38.998Z,0.82
2023-01-09T14:23:31.504Z,0.70
2023-01-09T14:25:58.027Z,0.73
2023-01-09T14:28:27.450Z,0.93
2023-01-09T14:33:21.538Z,0.68
2023-01-09T14:35:54.235Z,1.00
2023-01-09T14:38:32.269Z,0.88
2023-01-09T14:41:03.811Z,0.77
2023-01-09T14:43:44.210Z,0.95
2023-01-09T14:46:19.048Z,0.70
2023-01-09T14:49:05.607Z,0.90
2023-01-09T14:51:37.267Z,1.10
2023-01-09T14:54:15.292Z,0.80
2023-01-09T14:56:47.307Z,0.75
2023-01-09T14:59:15.327Z,0.85
2023-01-09T15:01:45.681Z,0.93
2023-01-09T15:04:40.299Z,0.80
2023-01-09T15:07:07.122Z,0.75
2023-01-09T15:09:47.747Z,0.98
2023-01-09T15:12:23.413Z,1.45
2023-01-09T15:14:52.347Z,0.70
2023-01-09T15:17:24.341Z,0.70
2023-01-09T15:19:51.940Z,0.82
2023-01-09T15:22:32.767Z,0.80
2023-01-09T15:25:12.427Z,0.93
2023-01-09T15:27:49.164Z,0.90
2023-01-09T15:30:22.778Z,0.73
2023-01-09T15:32:52.488Z,1.10
2023-01-09T15:35:20.202Z,0.90
2023-01-09T15:37:47.203Z,1.02
2023-01-09T15:40:22.904Z,0.70
2023-01-09T15:42:58.078Z,0.90
2023-01-09T15:45:43.378Z,1.05
2023-01-09T15:48:27.090Z,0.88
2023-01-09T15:51:06.735Z,0.75
2023-01-09T15:53:34.243Z,0.80
2023-01-09T15:56:12.510Z,0.98
2023-01-09T15:58:47.302Z,0.82
2023-01-09T16:01:37.571Z,0.98
2023-01-09T16:04:10.123Z,0.73
2023-01-09T16:06:51.556Z,0.80
2023-01-09T16:09:23.750Z,0.90
2023-01-09T16:11:53.790Z,1.08
2023-01-09T16:14:24.325Z,1.08
2023-01-09T16:16:52.547Z,0.95
2023-01-09T16:19:30.943Z,0.75
2023-01-09T16:22:00.004Z,0.60
2023-01-09T16:24:41.327Z,0.60
2023-01-09T16:27:17.133Z,0.82
2023-01-09T16:29:47.473Z,0.85
2023-01-09T16:32:22.561Z,0.90
2023-01-09T16:35:06.067Z,0.88
2023-01-09T16:37:33.883Z,0.80
2023-01-09T16:40:21.004Z,0.75
2023-01-09T16:43:08.466Z,0.80
2023-01-09T16:45:40.918Z,0.80
2023-01-09T16:48:13.740Z,0.90
2023-01-09T16:50:41.054Z,1.20
2023-01-09T16:53:24.099Z,0.90
2023-01-09T16:56:14.833Z,0.80
2023-01-09T16:58:41.618Z,1.10
2023-01-09T17:01:10.435Z,1.00
2023-01-09T17:03:37.074Z,0.70
2023-01-09T17:06:04.869Z,0.63
2023-01-09T17:08:37.446Z,0.82
2023-01-09T17:11:05.110Z,0.90
2023-01-09T17:13:32.062Z,0.80
2023-01-09T17:15:59.789Z,0.90
2023-01-09T17:18:29.657Z,0.88
2023-01-09T17:20:58.875Z,0.90
2023-01-09T17:23:28.763Z,0.85
2023-01-09T17:26:17.481Z,0.68
2023-01-09T17:28:48.798Z,0.80
2023-01-09T17:31:15.709Z,0.80
2023-01-09T17:33:42.591Z,0.80
2023-01-09T17:36:32.256Z,0.75
2023-01-09T17:38:59.441Z,0.93
2023-01-09T17:41:29.032Z,1.00
2023-01-09T17:43:56.651Z,0.80
2023-01-09T17:46:28.839Z,0.80
2023-01-09T17:48:56.153Z,0.90
2023-01-09T17:51:23.536Z,0.82
2023-01-09T17:53:50.656Z,0.77
2023-01-09T17:56:22.249Z,0.75
2023-01-09T17:58:49.183Z,0.80
2023-01-09T18:01:17.771Z,0.90
2023-01-09T18:03:48.422Z,0.70
2023-01-09T18:06:17.026Z,0.82
2023-01-09T18:08:43.957Z,0.90
2023-01-09T18:11:19.912Z,1.00
2023-01-09T18:13:48.284Z,0.82
2023-01-09T18:16:18.231Z,0.90
2023-01-09T18:18:45.247Z,0.90
2023-01-09T18:21:16.571Z,0.70
2023-01-09T18:23:43.470Z,0.85
2023-01-09T18:26:11.622Z,0.90
2023-01-09T18:28:39.274Z,0.90
2023-01-09T18:31:06.497Z,0.90
2023-01-09T18:33:33.284Z,0.70
2023-01-09T18:36:08.820Z,0.93
2023-01-09T18:38:36.224Z,0.98
2023-01-09T18:41:04.172Z,0.82
2023-01-09T18:43:31.429Z,0.70
2023-01-09T18:45:58.131Z,0.80
2023-01-09T18:48:25.028Z,1.05
2023-01-09T18:50:51.647Z,0.98
2023-01-09T18:53:18.321Z,0.73
2023-01-09T18:55:44.947Z,0.77
2023-01-09T18:58:11.572Z,1.00
2023-01-09T19:00:38.402Z,0.77
2023-01-09T19:03:05.156Z,0.88
2023-01-09T19:05:33.008Z,0.80
2023-01-09T19:07:59.825Z,0.80
2023-01-09T19:10:26.483Z,0.70
2023-01-09T19:12:53.462Z,0.70
2023-01-09T19:15:22.658Z,0.70
2023-01-09T19:17:51.654Z,0.77
2023-01-09T19:20:19.282Z,0.70
2023-01-09T19:22:46.024Z,0.80
2023-01-09T19:25:12.824Z,0.73
2023-01-09T19:27:39.517Z,0.70
2023-01-09T19:30:07.049Z,0.77
2023-01-09T19:32:33.779Z,0.70
2023-01-09T19:35:00.537Z,0.70
2023-01-09T19:37:27.184Z,0.75
2023-01-09T19:39:53.858Z,0.88
2023-01-09T19:42:20.686Z,0.70
2023-01-09T19:44:47.542Z,0.80
2023-01-09T19:47:14.696Z,0.70
2023-01-09T19:49:53.311Z,0.95
2023-01-09T19:52:20.035Z,0.65
2023-01-09T19:54:47.692Z,0.57
2023-01-09T19:57:14.335Z,0.55
2023-01-09T19:59:43.279Z,0.63
2023-01-09T20:02:12.130Z,0.82
2023-01-09T20:04:38.991Z,0.70
2023-01-09T20:07:06.050Z,0.80
2023-01-09T20:09:32.982Z,0.80
2023-01-09T20:12:01.523Z,0.57
2023-01-09T20:14:28.267Z,0.77
2023-01-09T20:16:59.826Z,0.85
2023-01-09T20:19:27.515Z,0.73
2023-01-09T20:21:54.293Z,0.63
2023-01-09T20:24:20.841Z,0.60
2023-01-09T20:26:47.551Z,0.70
2023-01-09T20:29:14.350Z,0.73
2023-01-09T20:31:40.995Z,1.20
2023-01-09T20:34:07.814Z,0.80
2023-01-09T20:36:34.950Z,0.82
2023-01-09T20:39:04.553Z,0.80
2023-01-09T20:41:34.481Z,0.80
2023-01-09T20:44:04.978Z,0.70
2023-01-09T20:46:36.712Z,0.80
2023-01-09T20:49:06.579Z,0.80
2023-01-09T20:51:40.344Z,0.70
2023-01-09T20:54:07.614Z,0.80
2023-01-09T20:56:34.274Z,0.65
2023-01-09T20:59:03.283Z,0.60
2023-01-09T21:01:30.100Z,0.60
2023-01-09T21:03:57.506Z,0.60
2023-01-09T21:06:25.646Z,0.60
2023-01-09T21:08:53.099Z,0.68
2023-01-09T21:11:21.616Z,0.70
2023-01-09T21:13:48.812Z,0.63
2023-01-09T21:16:19.900Z,0.90
2023-01-09T21:18:47.807Z,0.80
2023-01-09T21:21:17.063Z,0.80
2023-01-09T21:26:15.597Z,0.80
2023-01-09T21:28:49.240Z,0.80
2023-01-09T21:31:19.389Z,0.85
2023-01-09T21:33:47.531Z,0.77
2023-01-09T21:36:14.778Z,0.77
2023-01-09T21:38:41.604Z,0.93
2023-01-09T21:41:27.625Z,0.80
2023-01-09T21:44:12.658Z,0.80
2023-01-09T21:46:57.769Z,0.77
2023-01-09T21:49:26.618Z,0.80
2023-01-09T21:51:54.278Z,0.60
2023-01-09T21:54:23.199Z,1.00
2023-01-09T21:56:51.219Z,1.05
2023-01-09T21:59:18.561Z,0.75
2023-01-09T22:01:46.200Z,0.88
2023-01-09T22:04:14.963Z,1.00
2023-01-09T22:06:41.865Z,1.10
2023-01-09T22:09:10.939Z,0.90
2023-01-09T22:11:39.196Z,0.82
2023-01-09T22:14:06.120Z,0.75
2023-01-09T22:16:33.063Z,0.77
2023-01-09T22:18:59.911Z,0.80
2023-01-09T22:21:26.620Z,0.82
2023-01-09T22:23:53.598Z,1.10
2023-01-09T22:26:21.015Z,0.82
2023-01-09T22:28:48.719Z,0.90
2023-01-09T22:31:21.650Z,1.05
2023-01-09T22:33:52.700Z,0.77
2023-01-09T22:36:20.149Z,0.70
2023-01-09T22:38:47.114Z,1.00
2023-01-09T22:41:14.104Z,0.75
2023-01-09T22:43:41.063Z,1.17
2023-01-09T22:46:11.354Z,0.80
2023-01-09T22:48:38.608Z,0.90
2023-01-09T22:51:08.030Z,0.80
2023-01-09T22:53:35.249Z,0.90
2023-01-09T22:56:05.183Z,0.88
2023-01-09T22:58:55.780Z,0.70
2023-01-09T23:01:22.872Z,0.75
2023-01-09T23:03:49.789Z,0.90
2023-01-09T23:06:19.347Z,0.80
2023-01-09T23:08:46.511Z,1.05
2023-01-09T23:11:38.133Z,0.82
2023-01-09T23:14:04.780Z,0.85
2023-01-09T23:16:31.476Z,0.88
2023-01-09T23:18:58.086Z,0.90
2023-01-09T23:21:24.836Z,0.75
2023-01-09T23:23:51.662Z,0.75
2023-01-09T23:26:18.501Z,0.90
2023-01-09T23:28:45.088Z,1.10
2023-01-09T23:31:11.781Z,1.10
2023-01-09T23:33:38.380Z,0.77
2023-01-09T23:36:05.290Z,0.90
2023-01-09T23:38:31.906Z,0.85
2023-01-09T23:40:58.536Z,0.88
2023-01-09T23:43:25.423Z,0.98
2023-01-09T23:45:55.124Z,0.70
2023-01-09T23:48:21.852Z,0.98
2023-01-09T23:50:50.567Z,0.90
2023-01-09T23:53:18.813Z,1.00
2023-01-09T23:55:45.621Z,1.10
2023-01-09T23:58:12.339Z,0.88
